首页
METAR-TAF:

METAR-TAF

机场 :

林丁平德林国际机场

拿骚, 巴哈马

纬度: 25-03N, 经度: 077-28W, 海拔: 3米

当前天气观测

该预报发布于23分钟前的22:00 UTC
风速10节,风向
温度 26°C
湿度 58%
气压 1018 hPa
能见度10公里或以上
散云层高于3000英尺

METAR: MYNN 172200Z 09010KT 9999 SCT030 26/17 A3007

时间: 18:23 (22:23 UTC)

预报

该预报发布于5小时和23分钟前的17:00 UTC
预报有效从17日的 18点(UTC)到 18日的 18点(UTC)
风速12节,风向
能见度10公里或以上
多云层高于3500英尺
从 点(UTC)
风速12节,风向
能见度10公里或以上
散云层高于4000英尺

TAF: MYNN 171700Z 1718/1818 10012KT 9999 BKN035 FM 180000 09006KT 9999 SCT040 BCMG 1812/1814 10012KT

超过4000个机场的气象观测和天气预报(METAR&TAF报告)。

可查询的气象台以黄色和红色小点在地图上表示。

将鼠标移到小点上方,可查看气象台名称。

然后点击查看天气观测和预报。

如需切换地图:点击带黑十字的绿色按钮放大地图;点击带横线的绿色按钮缩小地图;或者点击绿色箭头查看邻近地区的地图。


METAR-TAF: